ENTC/TOS METAR and TAF weather

Enter ICAO airport designator
Station Type Date Time Source
ENTC METAR 2022/01/29 01:20 UTC NOAA

ENTC 290120Z 19006KT 9999 FEW029 M05/M09 Q0996 RMK WIND 2600FT /////KT


Station Type Date Time Source
ENTC Decoded METAR 2022/01/29 01:20 UTC NOAA

Tromso / Langnes, Norway (ENTC) 69-41N 018-55E 10M
Jan 28, 2022 - 08:20 PM EST / 2022.01.29 0120 UTC
Wind: from the S (190 degrees) at 7 MPH (6 KT):0
Visibility: greater than 7 mile(s):0
Sky conditions: mostly clear
Temperature: 23 F (-5 C)
Windchill: 14 F (-10 C):1
Dew Point: 15 F (-9 C)
Relative Humidity: 73%
Pressure (altimeter): 29.41 in. Hg (0996 hPa)
ob: ENTC 290120Z 19006KT 9999 FEW029 M05/M09 Q0996 RMK WIND 2600FT /////KT
cycle: 1

Station Type Date Time Source
ENTC TAF 2022/01/28 18:57 UTC NOAA

TAF ENTC 281700Z 2818/2918 20009KT 9999 FEW008 SCT030
TEMPO 2818/2901 1000 SHSN VV006

Example: see airport list